sensor_id;sensor_type;location;lat;lon;timestamp;temperature;humidity
678;DHT22;321;48.814;9.132;2023-08-07T00:01:50;14.10;99.90
678;DHT22;321;48.814;9.132;2023-08-07T00:04:16;14.10;99.90
678;DHT22;321;48.814;9.132;2023-08-07T00:06:41;14.00;99.90
678;DHT22;321;48.814;9.132;2023-08-07T00:09:07;14.00;99.90
678;DHT22;321;48.814;9.132;2023-08-07T00:11:32;13.90;99.90
678;DHT22;321;48.814;9.132;2023-08-07T00:13:58;14.10;99.90
678;DHT22;321;48.814;9.132;2023-08-07T00:16:24;14.00;99.90
678;DHT22;321;48.814;9.132;2023-08-07T00:18:49;14.00;99.90
678;DHT22;321;48.814;9.132;2023-08-07T00:21:17;14.00;99.90
678;DHT22;321;48.814;9.132;2023-08-07T00:23:43;14.00;99.90
678;DHT22;321;48.814;9.132;2023-08-07T00:26:09;14.00;99.90
678;DHT22;321;48.814;9.132;2023-08-07T00:28:34;14.00;99.90
678;DHT22;321;48.814;9.132;2023-08-07T00:31:00;14.00;99.90
678;DHT22;321;48.814;9.132;2023-08-07T00:33:25;14.00;99.90
678;DHT22;321;48.814;9.132;2023-08-07T00:35:51;14.00;99.90
678;DHT22;321;48.814;9.132;2023-08-07T00:38:18;14.10;99.90
678;DHT22;321;48.814;9.132;2023-08-07T00:40:44;14.10;99.90
678;DHT22;321;48.814;9.132;2023-08-07T00:43:09;14.10;99.90
678;DHT22;321;48.814;9.132;2023-08-07T00:45:41;14.10;99.90
678;DHT22;321;48.814;9.132;2023-08-07T00:48:07;14.10;99.90
678;DHT22;321;48.814;9.132;2023-08-07T00:50:33;14.00;99.90
678;DHT22;321;48.814;9.132;2023-08-07T00:52:59;14.00;99.90
678;DHT22;321;48.814;9.132;2023-08-07T00:55:25;14.10;99.90
678;DHT22;321;48.814;9.132;2023-08-07T00:57:51;14.10;99.90
678;DHT22;321;48.814;9.132;2023-08-07T01:00:17;14.10;99.90
678;DHT22;321;48.814;9.132;2023-08-07T01:02:43;14.10;99.90
678;DHT22;321;48.814;9.132;2023-08-07T01:05:09;14.00;99.90
678;DHT22;321;48.814;9.132;2023-08-07T01:07:34;14.10;99.90
678;DHT22;321;48.814;9.132;2023-08-07T01:10:00;14.10;99.90
678;DHT22;321;48.814;9.132;2023-08-07T01:12:43;14.10;99.90
678;DHT22;321;48.814;9.132;2023-08-07T01:15:15;14.10;99.90
678;DHT22;321;48.814;9.132;2023-08-07T01:17:43;14.10;99.90
678;DHT22;321;48.814;9.132;2023-08-07T01:20:10;14.10;99.90
678;DHT22;321;48.814;9.132;2023-08-07T01:22:36;14.10;99.90
678;DHT22;321;48.814;9.132;2023-08-07T01:25:02;14.10;99.90
678;DHT22;321;48.814;9.132;2023-08-07T01:27:37;14.10;99.90
678;DHT22;321;48.814;9.132;2023-08-07T01:30:19;14.10;99.90
678;DHT22;321;48.814;9.132;2023-08-07T01:35:36;14.20;99.90
678;DHT22;321;48.814;9.132;2023-08-07T01:38:05;14.20;99.90
678;DHT22;321;48.814;9.132;2023-08-07T01:40:31;14.10;99.90
678;DHT22;321;48.814;9.132;2023-08-07T01:42:57;14.20;99.90
678;DHT22;321;48.814;9.132;2023-08-07T01:45:24;14.10;99.90
678;DHT22;321;48.814;9.132;2023-08-07T01:47:50;14.20;99.90
678;DHT22;321;48.814;9.132;2023-08-07T01:50:18;14.10;99.90
678;DHT22;321;48.814;9.132;2023-08-07T01:52:43;14.30;99.90
678;DHT22;321;48.814;9.132;2023-08-07T01:55:09;14.10;99.90
678;DHT22;321;48.814;9.132;2023-08-07T01:57:34;14.10;99.90
678;DHT22;321;48.814;9.132;2023-08-07T02:00:00;14.10;99.90
678;DHT22;321;48.814;9.132;2023-08-07T02:02:25;14.00;99.90
678;DHT22;321;48.814;9.132;2023-08-07T02:04:51;14.00;99.90
678;DHT22;321;48.814;9.132;2023-08-07T02:07:17;14.00;99.90
678;DHT22;321;48.814;9.132;2023-08-07T02:09:42;14.00;99.90
678;DHT22;321;48.814;9.132;2023-08-07T02:12:08;14.00;99.90
678;DHT22;321;48.814;9.132;2023-08-07T02:14:33;14.10;99.90
678;DHT22;321;48.814;9.132;2023-08-07T02:16:59;14.10;99.90
678;DHT22;321;48.814;9.132;2023-08-07T02:19:24;14.10;99.90
678;DHT22;321;48.814;9.132;2023-08-07T02:21:50;14.20;99.90
678;DHT22;321;48.814;9.132;2023-08-07T02:24:15;14.10;99.90
678;DHT22;321;48.814;9.132;2023-08-07T02:26:41;14.00;99.90
678;DHT22;321;48.814;9.132;2023-08-07T02:29:06;13.90;99.90
678;DHT22;321;48.814;9.132;2023-08-07T02:31:34;14.10;99.90
678;DHT22;321;48.814;9.132;2023-08-07T02:33:59;14.10;99.90
678;DHT22;321;48.814;9.132;2023-08-07T02:36:25;14.10;99.90
678;DHT22;321;48.814;9.132;2023-08-07T02:38:50;13.90;99.90
678;DHT22;321;48.814;9.132;2023-08-07T02:41:16;13.90;99.90
678;DHT22;321;48.814;9.132;2023-08-07T02:43:42;14.00;99.90
678;DHT22;321;48.814;9.132;2023-08-07T02:46:08;13.80;99.90
678;DHT22;321;48.814;9.132;2023-08-07T02:48:33;14.00;99.90
678;DHT22;321;48.814;9.132;2023-08-07T02:50:59;14.00;99.90
678;DHT22;321;48.814;9.132;2023-08-07T02:53:24;13.90;99.90
678;DHT22;321;48.814;9.132;2023-08-07T02:55:50;13.80;99.90
678;DHT22;321;48.814;9.132;2023-08-07T02:58:15;14.00;99.90
678;DHT22;321;48.814;9.132;2023-08-07T03:00:41;13.90;99.90
678;DHT22;321;48.814;9.132;2023-08-07T03:03:06;14.00;99.90
678;DHT22;321;48.814;9.132;2023-08-07T03:05:32;13.90;99.90
678;DHT22;321;48.814;9.132;2023-08-07T03:07:57;13.90;99.90
678;DHT22;321;48.814;9.132;2023-08-07T03:10:23;13.80;99.90
678;DHT22;321;48.814;9.132;2023-08-07T03:12:48;13.70;99.90
678;DHT22;321;48.814;9.132;2023-08-07T03:15:14;13.80;99.90
678;DHT22;321;48.814;9.132;2023-08-07T03:17:40;13.60;99.90
678;DHT22;321;48.814;9.132;2023-08-07T03:20:05;13.60;99.90
678;DHT22;321;48.814;9.132;2023-08-07T03:22:31;13.70;99.90
678;DHT22;321;48.814;9.132;2023-08-07T03:24:57;13.70;99.90
678;DHT22;321;48.814;9.132;2023-08-07T03:27:22;13.70;99.90
678;DHT22;321;48.814;9.132;2023-08-07T03:29:48;13.70;99.90
678;DHT22;321;48.814;9.132;2023-08-07T03:32:13;13.70;99.90
678;DHT22;321;48.814;9.132;2023-08-07T03:34:39;14.30;99.90
678;DHT22;321;48.814;9.132;2023-08-07T03:37:04;13.80;99.90
678;DHT22;321;48.814;9.132;2023-08-07T03:39:30;13.80;99.90
678;DHT22;321;48.814;9.132;2023-08-07T03:41:55;13.80;99.90
678;DHT22;321;48.814;9.132;2023-08-07T03:44:21;13.90;99.90
678;DHT22;321;48.814;9.132;2023-08-07T03:46:47;13.90;99.90
678;DHT22;321;48.814;9.132;2023-08-07T03:49:12;14.00;99.90
678;DHT22;321;48.814;9.132;2023-08-07T03:51:38;14.00;99.90
678;DHT22;321;48.814;9.132;2023-08-07T03:54:03;14.00;99.90
678;DHT22;321;48.814;9.132;2023-08-07T03:56:29;14.00;99.90
678;DHT22;321;48.814;9.132;2023-08-07T03:59:01;14.10;99.90
678;DHT22;321;48.814;9.132;2023-08-07T04:01:28;14.10;99.90
678;DHT22;321;48.814;9.132;2023-08-07T04:03:54;14.20;99.90
678;DHT22;321;48.814;9.132;2023-08-07T04:06:19;14.10;99.90
678;DHT22;321;48.814;9.132;2023-08-07T04:08:46;14.00;99.90
678;DHT22;321;48.814;9.132;2023-08-07T04:11:12;13.90;99.90
678;DHT22;321;48.814;9.132;2023-08-07T04:13:37;13.80;99.90
678;DHT22;321;48.814;9.132;2023-08-07T04:16:03;13.90;99.90
678;DHT22;321;48.814;9.132;2023-08-07T04:18:30;13.80;99.90
678;DHT22;321;48.814;9.132;2023-08-07T04:20:57;13.90;99.90
678;DHT22;321;48.814;9.132;2023-08-07T04:23:23;14.00;99.90
678;DHT22;321;48.814;9.132;2023-08-07T04:25:50;14.10;99.90
678;DHT22;321;48.814;9.132;2023-08-07T04:28:16;14.20;99.90
678;DHT22;321;48.814;9.132;2023-08-07T04:30:43;14.20;99.90
678;DHT22;321;48.814;9.132;2023-08-07T04:33:09;14.20;99.90
678;DHT22;321;48.814;9.132;2023-08-07T04:35:34;14.00;99.90
678;DHT22;321;48.814;9.132;2023-08-07T04:38:00;14.00;99.90
678;DHT22;321;48.814;9.132;2023-08-07T04:40:27;14.00;99.90
678;DHT22;321;48.814;9.132;2023-08-07T04:42:53;14.00;99.90
678;DHT22;321;48.814;9.132;2023-08-07T04:45:18;14.00;99.90
678;DHT22;321;48.814;9.132;2023-08-07T04:47:44;14.00;99.90
678;DHT22;321;48.814;9.132;2023-08-07T04:50:09;14.00;99.90
678;DHT22;321;48.814;9.132;2023-08-07T04:52:35;14.10;99.90
678;DHT22;321;48.814;9.132;2023-08-07T04:55:01;14.20;99.90
678;DHT22;321;48.814;9.132;2023-08-07T04:57:26;14.30;99.90
678;DHT22;321;48.814;9.132;2023-08-07T04:59:52;14.30;99.90
678;DHT22;321;48.814;9.132;2023-08-07T05:02:19;14.40;99.90
678;DHT22;321;48.814;9.132;2023-08-07T05:04:44;14.40;99.90
678;DHT22;321;48.814;9.132;2023-08-07T05:07:10;14.40;99.90
678;DHT22;321;48.814;9.132;2023-08-07T05:09:36;14.50;99.90
678;DHT22;321;48.814;9.132;2023-08-07T05:12:02;14.50;99.90
678;DHT22;321;48.814;9.132;2023-08-07T05:14:29;14.50;99.90
678;DHT22;321;48.814;9.132;2023-08-07T05:16:55;14.40;99.90
678;DHT22;321;48.814;9.132;2023-08-07T05:19:21;14.40;99.90
678;DHT22;321;48.814;9.132;2023-08-07T05:21:47;14.50;99.90
678;DHT22;321;48.814;9.132;2023-08-07T05:24:15;14.60;99.90
678;DHT22;321;48.814;9.132;2023-08-07T05:26:41;14.70;99.90
678;DHT22;321;48.814;9.132;2023-08-07T05:29:06;14.70;99.90
678;DHT22;321;48.814;9.132;2023-08-07T05:31:33;14.90;99.90
678;DHT22;321;48.814;9.132;2023-08-07T05:33:59;15.00;99.90
678;DHT22;321;48.814;9.132;2023-08-07T05:36:24;14.90;99.90
678;DHT22;321;48.814;9.132;2023-08-07T05:38:50;15.00;99.90
678;DHT22;321;48.814;9.132;2023-08-07T05:41:16;15.10;99.90
678;DHT22;321;48.814;9.132;2023-08-07T05:43:45;15.10;99.90
678;DHT22;321;48.814;9.132;2023-08-07T05:46:11;15.20;99.90
678;DHT22;321;48.814;9.132;2023-08-07T05:48:39;15.30;99.90
678;DHT22;321;48.814;9.132;2023-08-07T05:51:04;15.40;99.90
678;DHT22;321;48.814;9.132;2023-08-07T05:53:30;15.50;99.90
678;DHT22;321;48.814;9.132;2023-08-07T05:55:56;15.50;99.90
678;DHT22;321;48.814;9.132;2023-08-07T05:58:21;15.60;99.90
678;DHT22;321;48.814;9.132;2023-08-07T06:00:47;15.70;99.90
678;DHT22;321;48.814;9.132;2023-08-07T06:03:12;15.80;99.90
678;DHT22;321;48.814;9.132;2023-08-07T06:05:38;15.90;99.90
678;DHT22;321;48.814;9.132;2023-08-07T06:08:04;16.10;99.90
678;DHT22;321;48.814;9.132;2023-08-07T06:10:29;16.20;99.90
678;DHT22;321;48.814;9.132;2023-08-07T06:12:55;16.20;99.90
678;DHT22;321;48.814;9.132;2023-08-07T06:15:20;16.20;99.90
678;DHT22;321;48.814;9.132;2023-08-07T06:17:46;16.20;99.90
678;DHT22;321;48.814;9.132;2023-08-07T06:20:12;16.40;99.90
678;DHT22;321;48.814;9.132;2023-08-07T06:22:40;16.50;99.90
678;DHT22;321;48.814;9.132;2023-08-07T06:25:06;16.50;99.90
678;DHT22;321;48.814;9.132;2023-08-07T06:27:32;16.40;99.90
678;DHT22;321;48.814;9.132;2023-08-07T06:29:58;16.30;99.90
678;DHT22;321;48.814;9.132;2023-08-07T06:32:25;16.30;99.90
678;DHT22;321;48.814;9.132;2023-08-07T06:34:51;16.30;99.90
678;DHT22;321;48.814;9.132;2023-08-07T06:37:16;16.30;99.90
678;DHT22;321;48.814;9.132;2023-08-07T06:39:42;16.30;99.90
678;DHT22;321;48.814;9.132;2023-08-07T06:42:10;16.60;99.90
678;DHT22;321;48.814;9.132;2023-08-07T06:44:35;16.80;99.90
678;DHT22;321;48.814;9.132;2023-08-07T06:47:01;17.00;99.90
678;DHT22;321;48.814;9.132;2023-08-07T06:49:27;17.10;99.90
678;DHT22;321;48.814;9.132;2023-08-07T06:51:52;17.20;99.90
678;DHT22;321;48.814;9.132;2023-08-07T06:54:18;17.20;99.90
678;DHT22;321;48.814;9.132;2023-08-07T06:56:43;17.30;99.90
678;DHT22;321;48.814;9.132;2023-08-07T06:59:10;17.70;99.90
678;DHT22;321;48.814;9.132;2023-08-07T07:01:35;17.80;99.90
678;DHT22;321;48.814;9.132;2023-08-07T07:04:01;18.30;99.90
678;DHT22;321;48.814;9.132;2023-08-07T07:06:27;19.00;99.90
678;DHT22;321;48.814;9.132;2023-08-07T07:08:53;19.40;99.90
678;DHT22;321;48.814;9.132;2023-08-07T07:11:22;19.50;99.80
678;DHT22;321;48.814;9.132;2023-08-07T07:13:50;19.50;98.90
678;DHT22;321;48.814;9.132;2023-08-07T07:16:17;19.30;98.50
678;DHT22;321;48.814;9.132;2023-08-07T07:18:42;19.20;98.90
678;DHT22;321;48.814;9.132;2023-08-07T07:21:08;19.00;98.70
678;DHT22;321;48.814;9.132;2023-08-07T07:23:33;18.90;98.20
678;DHT22;321;48.814;9.132;2023-08-07T07:25:59;18.70;98.50
678;DHT22;321;48.814;9.132;2023-08-07T07:28:24;18.50;98.40
678;DHT22;321;48.814;9.132;2023-08-07T07:30:50;18.50;99.90
678;DHT22;321;48.814;9.132;2023-08-07T07:33:16;18.40;99.90
678;DHT22;321;48.814;9.132;2023-08-07T07:35:42;18.40;99.70
678;DHT22;321;48.814;9.132;2023-08-07T07:38:07;18.30;99.80
678;DHT22;321;48.814;9.132;2023-08-07T07:40:34;18.20;99.90
678;DHT22;321;48.814;9.132;2023-08-07T07:43:00;18.30;99.90
678;DHT22;321;48.814;9.132;2023-08-07T07:45:25;18.60;99.90
678;DHT22;321;48.814;9.132;2023-08-07T07:47:51;19.20;99.90
678;DHT22;321;48.814;9.132;2023-08-07T07:50:16;19.80;99.40
678;DHT22;321;48.814;9.132;2023-08-07T07:52:42;19.90;98.10
678;DHT22;321;48.814;9.132;2023-08-07T07:55:09;19.80;97.90
678;DHT22;321;48.814;9.132;2023-08-07T07:57:35;19.40;97.40
678;DHT22;321;48.814;9.132;2023-08-07T08:00:01;19.10;97.30
678;DHT22;321;48.814;9.132;2023-08-07T08:02:28;18.90;98.00
678;DHT22;321;48.814;9.132;2023-08-07T08:04:53;18.50;96.80
678;DHT22;321;48.814;9.132;2023-08-07T08:07:19;18.40;98.50
678;DHT22;321;48.814;9.132;2023-08-07T08:09:44;18.50;98.90
678;DHT22;321;48.814;9.132;2023-08-07T08:12:10;18.50;99.20
678;DHT22;321;48.814;9.132;2023-08-07T08:14:36;18.40;99.20
678;DHT22;321;48.814;9.132;2023-08-07T08:17:02;18.30;99.90
678;DHT22;321;48.814;9.132;2023-08-07T08:19:27;18.50;99.90
678;DHT22;321;48.814;9.132;2023-08-07T08:21:53;18.50;99.30
678;DHT22;321;48.814;9.132;2023-08-07T08:24:19;18.60;99.30
678;DHT22;321;48.814;9.132;2023-08-07T08:26:44;18.60;98.80
678;DHT22;321;48.814;9.132;2023-08-07T08:29:10;18.30;97.60
678;DHT22;321;48.814;9.132;2023-08-07T08:31:35;18.40;98.10
678;DHT22;321;48.814;9.132;2023-08-07T08:34:01;18.40;98.80
678;DHT22;321;48.814;9.132;2023-08-07T08:36:26;18.70;99.40
678;DHT22;321;48.814;9.132;2023-08-07T08:38:52;18.90;98.40
678;DHT22;321;48.814;9.132;2023-08-07T08:41:18;18.90;97.50
678;DHT22;321;48.814;9.132;2023-08-07T08:43:46;19.30;97.20
678;DHT22;321;48.814;9.132;2023-08-07T08:46:14;19.80;95.60
678;DHT22;321;48.814;9.132;2023-08-07T08:48:49;20.30;95.40
678;DHT22;321;48.814;9.132;2023-08-07T08:51:15;20.60;95.00
678;DHT22;321;48.814;9.132;2023-08-07T08:53:40;20.80;93.00
678;DHT22;321;48.814;9.132;2023-08-07T08:56:06;21.00;94.00
678;DHT22;321;48.814;9.132;2023-08-07T08:58:32;21.20;92.90
678;DHT22;321;48.814;9.132;2023-08-07T09:00:59;21.10;92.90
678;DHT22;321;48.814;9.132;2023-08-07T09:03:25;21.20;91.30
678;DHT22;321;48.814;9.132;2023-08-07T09:05:53;21.30;92.90
678;DHT22;321;48.814;9.132;2023-08-07T09:08:22;21.70;92.40
678;DHT22;321;48.814;9.132;2023-08-07T09:10:50;22.10;92.60
678;DHT22;321;48.814;9.132;2023-08-07T09:13:18;22.40;91.90
678;DHT22;321;48.814;9.132;2023-08-07T09:15:46;22.50;92.10
678;DHT22;321;48.814;9.132;2023-08-07T09:18:16;22.10;88.90
678;DHT22;321;48.814;9.132;2023-08-07T09:20:42;22.10;91.00
678;DHT22;321;48.814;9.132;2023-08-07T09:23:08;21.90;90.60
678;DHT22;321;48.814;9.132;2023-08-07T09:25:34;21.90;91.20
678;DHT22;321;48.814;9.132;2023-08-07T09:28:05;21.90;91.60
678;DHT22;321;48.814;9.132;2023-08-07T09:30:32;21.90;91.00
678;DHT22;321;48.814;9.132;2023-08-07T09:33:00;21.70;91.20
678;DHT22;321;48.814;9.132;2023-08-07T09:35:26;21.40;99.10
678;DHT22;321;48.814;9.132;2023-08-07T09:37:52;21.90;92.10
678;DHT22;321;48.814;9.132;2023-08-07T09:40:18;21.70;90.40
678;DHT22;321;48.814;9.132;2023-08-07T09:42:44;21.60;91.40
678;DHT22;321;48.814;9.132;2023-08-07T09:45:23;21.90;89.90
678;DHT22;321;48.814;9.132;2023-08-07T09:48:05;22.80;94.40
678;DHT22;321;48.814;9.132;2023-08-07T09:50:34;22.70;90.00
678;DHT22;321;48.814;9.132;2023-08-07T09:53:00;22.80;90.00
678;DHT22;321;48.814;9.132;2023-08-07T09:55:26;22.40;89.40
678;DHT22;321;48.814;9.132;2023-08-07T09:57:53;22.20;89.30
678;DHT22;321;48.814;9.132;2023-08-07T10:00:19;21.80;90.10
678;DHT22;321;48.814;9.132;2023-08-07T10:02:49;22.10;91.20
678;DHT22;321;48.814;9.132;2023-08-07T10:05:15;22.50;88.80
678;DHT22;321;48.814;9.132;2023-08-07T10:07:42;23.00;87.70
678;DHT22;321;48.814;9.132;2023-08-07T10:10:08;23.50;88.20
678;DHT22;321;48.814;9.132;2023-08-07T10:12:36;24.00;87.50
678;DHT22;321;48.814;9.132;2023-08-07T10:15:02;24.60;87.40
678;DHT22;321;48.814;9.132;2023-08-07T10:17:29;25.50;84.00
678;DHT22;321;48.814;9.132;2023-08-07T10:19:56;26.10;83.40
678;DHT22;321;48.814;9.132;2023-08-07T10:22:25;25.50;76.70
678;DHT22;321;48.814;9.132;2023-08-07T10:24:54;25.10;78.40
678;DHT22;321;48.814;9.132;2023-08-07T10:27:23;24.70;76.30
678;DHT22;321;48.814;9.132;2023-08-07T10:29:50;24.20;75.50
678;DHT22;321;48.814;9.132;2023-08-07T10:32:19;23.90;81.90
678;DHT22;321;48.814;9.132;2023-08-07T10:34:54;23.60;81.40
678;DHT22;321;48.814;9.132;2023-08-07T10:37:42;23.00;82.30
678;DHT22;321;48.814;9.132;2023-08-07T10:40:11;22.60;82.40
678;DHT22;321;48.814;9.132;2023-08-07T10:45:23;22.10;83.50
678;DHT22;321;48.814;9.132;2023-08-07T10:50:34;21.30;83.80
678;DHT22;321;48.814;9.132;2023-08-07T10:53:03;20.90;83.80
678;DHT22;321;48.814;9.132;2023-08-07T10:55:43;20.80;87.50
678;DHT22;321;48.814;9.132;2023-08-07T11:00:52;21.40;87.80
678;DHT22;321;48.814;9.132;2023-08-07T11:03:41;21.60;87.10
678;DHT22;321;48.814;9.132;2023-08-07T11:06:09;21.60;84.80
678;DHT22;321;48.814;9.132;2023-08-07T11:08:36;21.50;82.80
678;DHT22;321;48.814;9.132;2023-08-07T11:11:05;21.40;84.10
678;DHT22;321;48.814;9.132;2023-08-07T11:13:32;21.40;86.00
678;DHT22;321;48.814;9.132;2023-08-07T11:15:58;21.30;87.00
678;DHT22;321;48.814;9.132;2023-08-07T11:18:25;21.30;84.40
678;DHT22;321;48.814;9.132;2023-08-07T11:20:52;20.90;89.50
678;DHT22;321;48.814;9.132;2023-08-07T11:23:23;21.60;91.20
678;DHT22;321;48.814;9.132;2023-08-07T11:25:49;20.80;99.70
678;DHT22;321;48.814;9.132;2023-08-07T11:28:21;20.60;99.30
678;DHT22;321;48.814;9.132;2023-08-07T11:30:53;20.60;99.60
678;DHT22;321;48.814;9.132;2023-08-07T11:33:21;20.40;98.90
678;DHT22;321;48.814;9.132;2023-08-07T11:35:48;20.30;90.40
678;DHT22;321;48.814;9.132;2023-08-07T11:38:36;20.10;99.20
678;DHT22;321;48.814;9.132;2023-08-07T11:41:03;19.90;99.90
678;DHT22;321;48.814;9.132;2023-08-07T11:43:30;19.80;99.90
678;DHT22;321;48.814;9.132;2023-08-07T11:46:01;19.70;93.50
678;DHT22;321;48.814;9.132;2023-08-07T11:48:27;19.60;93.10
678;DHT22;321;48.814;9.132;2023-08-07T11:53:21;19.30;99.70
678;DHT22;321;48.814;9.132;2023-08-07T11:55:51;19.30;99.90
678;DHT22;321;48.814;9.132;2023-08-07T12:00:46;18.80;94.80
678;DHT22;321;48.814;9.132;2023-08-07T12:03:29;18.90;99.90
678;DHT22;321;48.814;9.132;2023-08-07T12:05:56;19.10;94.30
678;DHT22;321;48.814;9.132;2023-08-07T12:10:54;19.50;99.90
678;DHT22;321;48.814;9.132;2023-08-07T12:13:26;19.10;95.00
678;DHT22;321;48.814;9.132;2023-08-07T12:15:54;19.50;99.90
678;DHT22;321;48.814;9.132;2023-08-07T12:18:20;19.90;99.90
678;DHT22;321;48.814;9.132;2023-08-07T12:20:52;19.80;95.70
678;DHT22;321;48.814;9.132;2023-08-07T12:23:20;20.50;98.40
678;DHT22;321;48.814;9.132;2023-08-07T12:28:12;20.50;99.90
678;DHT22;321;48.814;9.132;2023-08-07T12:30:38;20.50;93.80
678;DHT22;321;48.814;9.132;2023-08-07T12:33:04;20.30;95.00
678;DHT22;321;48.814;9.132;2023-08-07T12:35:31;20.30;99.90
678;DHT22;321;48.814;9.132;2023-08-07T12:37:57;20.30;94.60
678;DHT22;321;48.814;9.132;2023-08-07T12:40:23;20.10;99.90
678;DHT22;321;48.814;9.132;2023-08-07T12:42:49;20.00;99.90
678;DHT22;321;48.814;9.132;2023-08-07T12:45:16;20.70;99.90
678;DHT22;321;48.814;9.132;2023-08-07T12:47:42;20.80;99.90
678;DHT22;321;48.814;9.132;2023-08-07T12:50:08;20.90;99.90
678;DHT22;321;48.814;9.132;2023-08-07T12:52:34;20.40;99.90
678;DHT22;321;48.814;9.132;2023-08-07T12:55:00;21.00;99.90
678;DHT22;321;48.814;9.132;2023-08-07T12:57:26;21.10;99.90
678;DHT22;321;48.814;9.132;2023-08-07T12:59:51;21.00;99.80
678;DHT22;321;48.814;9.132;2023-08-07T13:02:17;21.10;99.30
678;DHT22;321;48.814;9.132;2023-08-07T13:04:43;21.00;99.90
678;DHT22;321;48.814;9.132;2023-08-07T13:07:08;21.10;99.90
678;DHT22;321;48.814;9.132;2023-08-07T13:09:34;21.10;99.90
678;DHT22;321;48.814;9.132;2023-08-07T13:12:00;21.00;99.90
678;DHT22;321;48.814;9.132;2023-08-07T13:14:25;20.80;99.90
678;DHT22;321;48.814;9.132;2023-08-07T13:16:51;21.00;99.90
678;DHT22;321;48.814;9.132;2023-08-07T13:19:17;21.30;99.90
678;DHT22;321;48.814;9.132;2023-08-07T13:21:42;20.90;99.90
678;DHT22;321;48.814;9.132;2023-08-07T13:24:08;20.70;99.90
678;DHT22;321;48.814;9.132;2023-08-07T13:26:33;20.40;98.00
678;DHT22;321;48.814;9.132;2023-08-07T13:31:25;20.40;99.90
678;DHT22;321;48.814;9.132;2023-08-07T13:36:17;20.90;99.90
678;DHT22;321;48.814;9.132;2023-08-07T13:38:43;21.10;99.80
678;DHT22;321;48.814;9.132;2023-08-07T13:41:08;20.70;99.90
678;DHT22;321;48.814;9.132;2023-08-07T13:48:26;21.00;99.50
678;DHT22;321;48.814;9.132;2023-08-07T13:50:53;20.80;99.90
678;DHT22;321;48.814;9.132;2023-08-07T13:53:19;20.40;98.70
678;DHT22;321;48.814;9.132;2023-08-07T13:55:46;20.40;92.10
678;DHT22;321;48.814;9.132;2023-08-07T13:58:12;20.60;93.80
678;DHT22;321;48.814;9.132;2023-08-07T14:03:08;20.60;99.90
678;DHT22;321;48.814;9.132;2023-08-07T14:05:34;20.50;99.90
678;DHT22;321;48.814;9.132;2023-08-07T14:07:59;20.50;99.90
678;DHT22;321;48.814;9.132;2023-08-07T14:10:25;20.60;99.90
678;DHT22;321;48.814;9.132;2023-08-07T14:17:42;21.10;99.90
678;DHT22;321;48.814;9.132;2023-08-07T14:20:08;21.20;98.00
678;DHT22;321;48.814;9.132;2023-08-07T14:22:34;21.30;97.90
678;DHT22;321;48.814;9.132;2023-08-07T14:25:02;20.90;99.90
678;DHT22;321;48.814;9.132;2023-08-07T14:27:28;20.70;98.40
678;DHT22;321;48.814;9.132;2023-08-07T14:29:54;20.40;99.10
678;DHT22;321;48.814;9.132;2023-08-07T14:32:19;20.20;99.90
678;DHT22;321;48.814;9.132;2023-08-07T14:34:45;20.10;99.90
678;DHT22;321;48.814;9.132;2023-08-07T14:37:13;20.10;98.20
678;DHT22;321;48.814;9.132;2023-08-07T14:39:41;20.20;93.10
678;DHT22;321;48.814;9.132;2023-08-07T14:42:06;20.40;99.90
678;DHT22;321;48.814;9.132;2023-08-07T14:44:33;20.50;99.90
678;DHT22;321;48.814;9.132;2023-08-07T14:46:58;20.70;95.00
678;DHT22;321;48.814;9.132;2023-08-07T15:11:18;19.80;99.90
678;DHT22;321;48.814;9.132;2023-08-07T15:13:44;19.70;99.90
678;DHT22;321;48.814;9.132;2023-08-07T15:16:09;19.60;99.90
678;DHT22;321;48.814;9.132;2023-08-07T15:18:35;19.60;97.10
678;DHT22;321;48.814;9.132;2023-08-07T15:21:03;19.70;94.60
678;DHT22;321;48.814;9.132;2023-08-07T15:25:55;19.80;99.90
678;DHT22;321;48.814;9.132;2023-08-07T15:28:20;19.80;99.90
678;DHT22;321;48.814;9.132;2023-08-07T15:30:50;19.80;99.90
678;DHT22;321;48.814;9.132;2023-08-07T15:33:16;19.80;99.90
678;DHT22;321;48.814;9.132;2023-08-07T15:35:43;19.90;99.90
678;DHT22;321;48.814;9.132;2023-08-07T15:38:09;19.80;99.90
678;DHT22;321;48.814;9.132;2023-08-07T15:40:43;19.80;99.90
678;DHT22;321;48.814;9.132;2023-08-07T15:43:12;19.80;99.90
678;DHT22;321;48.814;9.132;2023-08-07T15:45:37;19.70;99.90
678;DHT22;321;48.814;9.132;2023-08-07T15:48:04;19.80;95.10
678;DHT22;321;48.814;9.132;2023-08-07T15:50:30;19.60;99.40
678;DHT22;321;48.814;9.132;2023-08-07T15:53:00;19.50;99.90
678;DHT22;321;48.814;9.132;2023-08-07T15:55:26;19.40;99.90
678;DHT22;321;48.814;9.132;2023-08-07T16:14:54;19.40;99.90
678;DHT22;321;48.814;9.132;2023-08-07T16:17:24;19.40;99.90
678;DHT22;321;48.814;9.132;2023-08-07T16:19:50;19.40;99.90
678;DHT22;321;48.814;9.132;2023-08-07T16:22:16;19.40;99.90
678;DHT22;321;48.814;9.132;2023-08-07T16:24:42;19.20;99.90
678;DHT22;321;48.814;9.132;2023-08-07T16:27:07;19.10;98.10
678;DHT22;321;48.814;9.132;2023-08-07T16:29:33;19.10;98.90
678;DHT22;321;48.814;9.132;2023-08-07T16:31:59;19.00;99.90
678;DHT22;321;48.814;9.132;2023-08-07T16:34:30;19.00;99.90
678;DHT22;321;48.814;9.132;2023-08-07T16:36:55;18.90;99.90
678;DHT22;321;48.814;9.132;2023-08-07T16:41:47;19.00;99.90
678;DHT22;321;48.814;9.132;2023-08-07T16:44:13;18.80;96.90
678;DHT22;321;48.814;9.132;2023-08-07T16:46:38;18.70;99.10
678;DHT22;321;48.814;9.132;2023-08-07T16:51:30;18.90;99.90
678;DHT22;321;48.814;9.132;2023-08-07T16:54:00;18.80;97.20
678;DHT22;321;48.814;9.132;2023-08-07T16:56:27;18.90;96.80
678;DHT22;321;48.814;9.132;2023-08-07T16:58:53;18.90;96.70
678;DHT22;321;48.814;9.132;2023-08-07T17:01:18;18.90;96.50
678;DHT22;321;48.814;9.132;2023-08-07T17:06:11;19.40;99.90
678;DHT22;321;48.814;9.132;2023-08-07T17:11:03;19.10;99.90
678;DHT22;321;48.814;9.132;2023-08-07T17:13:29;19.10;95.30
678;DHT22;321;48.814;9.132;2023-08-07T17:15:55;19.10;95.50
678;DHT22;321;48.814;9.132;2023-08-07T17:20:47;18.90;99.90
678;DHT22;321;48.814;9.132;2023-08-07T17:23:12;19.00;99.90
678;DHT22;321;48.814;9.132;2023-08-07T17:25:38;19.00;99.90
678;DHT22;321;48.814;9.132;2023-08-07T17:28:04;18.90;95.60
678;DHT22;321;48.814;9.132;2023-08-07T17:30:30;18.70;99.90
678;DHT22;321;48.814;9.132;2023-08-07T17:32:56;18.80;99.90
678;DHT22;321;48.814;9.132;2023-08-07T17:35:22;18.80;99.90
678;DHT22;321;48.814;9.132;2023-08-07T17:40:15;19.00;99.90
678;DHT22;321;48.814;9.132;2023-08-07T17:42:40;18.90;95.90
678;DHT22;321;48.814;9.132;2023-08-07T17:45:06;19.50;96.80
678;DHT22;321;48.814;9.132;2023-08-07T17:47:32;18.40;99.90
678;DHT22;321;48.814;9.132;2023-08-07T17:49:58;18.60;97.20
678;DHT22;321;48.814;9.132;2023-08-07T17:54:51;18.60;99.90
678;DHT22;321;48.814;9.132;2023-08-07T17:57:17;18.50;99.90
678;DHT22;321;48.814;9.132;2023-08-07T18:04:34;18.40;99.90
678;DHT22;321;48.814;9.132;2023-08-07T18:09:26;18.40;98.90
678;DHT22;321;48.814;9.132;2023-08-07T18:11:51;18.20;99.90
678;DHT22;321;48.814;9.132;2023-08-07T18:14:17;18.10;99.70